Time;durP1;ratioP1;P1;durP2;ratioP2;P2;SDS_P1;SDS_P2;PMS_P1;PMS_P2;Temp;Humidity;BMP_temperature;BMP_pressure;BME280_temperature;BME280_humidity;BME280_pressure;Samples;Min_cycle;Max_cycle;Signal;HPM_P1;HPM_P2
2023/01/20 00:01:23;;;;;;;46.17;11.52;;;;;;;0.63;100.00;100989.50;5038257;28;20053;-67
2023/01/20 00:03:52;;;;;;;53.10;15.70;;;;;;;0.60;100.00;100987.06;5035120;28;20049;-67
2023/01/20 00:06:19;;;;;;;21.73;11.52;;;;;;;0.59;100.00;100994.00;5029569;28;20064;-68
2023/01/20 00:08:52;;;;;;;24.63;11.90;;;;;;;0.61;100.00;100999.09;5047361;28;20060;-68
2023/01/20 00:11:20;;;;;;;25.45;12.48;;;;;;;0.63;100.00;100998.97;5042341;28;20424;-68
2023/01/20 00:13:47;;;;;;;26.20;14.25;;;;;;;0.62;100.00;100998.16;5054899;28;20691;-69
2023/01/20 00:16:14;;;;;;;25.67;13.43;;;;;;;0.62;100.00;100999.91;5056075;28;20560;-68
2023/01/20 00:18:40;;;;;;;29.70;13.85;;;;;;;0.61;100.00;101003.41;5052184;28;20048;-69
2023/01/20 00:21:10;;;;;;;34.30;16.35;;;;;;;0.65;100.00;101010.06;5064080;28;20048;-68
2023/01/20 00:23:38;;;;;;;32.28;17.20;;;;;;;0.66;100.00;101004.84;5045728;28;20083;-68
2023/01/20 00:26:06;;;;;;;34.20;16.10;;;;;;;0.72;100.00;100999.34;5057582;28;20063;-68
2023/01/20 00:28:33;;;;;;;34.63;16.90;;;;;;;0.72;100.00;101004.50;5050592;28;20392;-69
2023/01/20 00:31:17;;;;;;;34.55;17.83;;;;;;;0.70;100.00;101002.94;5052940;28;20310;-67
2023/01/20 00:33:45;;;;;;;36.20;16.77;;;;;;;0.74;100.00;101005.25;5048018;28;20053;-68
2023/01/20 00:36:13;;;;;;;35.67;18.23;;;;;;;0.76;100.00;101010.38;5033492;28;20316;-69
2023/01/20 00:38:40;;;;;;;35.40;19.40;;;;;;;0.73;100.00;101005.38;5039565;28;20072;-67
2023/01/20 00:41:07;;;;;;;35.17;18.67;;;;;;;0.81;100.00;101013.56;5044847;28;20044;-67
2023/01/20 00:43:34;;;;;;;39.15;19.58;;;;;;;0.84;100.00;101018.53;5049432;28;20053;-67
2023/01/20 00:46:00;;;;;;;35.58;19.75;;;;;;;0.81;100.00;101016.13;5042464;28;20049;-67
2023/01/20 00:48:27;;;;;;;43.03;20.58;;;;;;;0.82;100.00;101017.78;5045922;28;20490;-68
2023/01/20 00:50:53;;;;;;;42.72;20.35;;;;;;;0.86;100.00;101021.06;5046512;28;20053;-68
2023/01/20 00:53:20;;;;;;;39.67;19.85;;;;;;;0.83;100.00;101023.81;5038773;28;20048;-69
2023/01/20 00:55:46;;;;;;;37.92;20.23;;;;;;;0.86;100.00;101027.03;5049535;28;20048;-68
2023/01/20 00:58:12;;;;;;;45.50;22.92;;;;;;;0.82;100.00;101028.13;5035987;28;20060;-69
2023/01/20 01:00:39;;;;;;;37.42;18.42;;;;;;;0.83;100.00;101034.97;5052804;28;20063;-68
2023/01/20 01:03:05;;;;;;;35.70;19.38;;;;;;;0.82;100.00;101035.03;5022919;28;20132;-66
2023/01/20 01:05:32;;;;;;;35.88;19.00;;;;;;;0.80;100.00;101040.28;5031946;28;20095;-67
2023/01/20 01:07:59;;;;;;;37.17;17.88;;;;;;;0.85;100.00;101037.47;5036073;28;20045;-68
2023/01/20 01:10:25;;;;;;;33.92;18.00;;;;;;;0.91;100.00;101042.31;5046286;28;20553;-68
2023/01/20 01:12:52;;;;;;;33.35;17.55;;;;;;;0.90;100.00;101045.81;5049992;28;20056;-69
2023/01/20 01:15:18;;;;;;;38.17;19.10;;;;;;;0.92;100.00;101044.84;5048816;28;20057;-68
2023/01/20 01:17:45;;;;;;;41.55;20.95;;;;;;;0.78;100.00;101055.00;5062662;28;20052;-68
2023/01/20 01:20:12;;;;;;;37.83;18.10;;;;;;;0.82;100.00;101040.19;5040813;28;20502;-68
2023/01/20 01:22:39;;;;;;;39.38;18.60;;;;;;;0.91;100.00;101043.16;5054702;28;20064;-69
2023/01/20 01:25:06;;;;;;;34.50;18.45;;;;;;;0.87;100.00;101048.56;5031555;28;20044;-68
2023/01/20 01:27:32;;;;;;;43.40;19.45;;;;;;;0.85;100.00;101048.63;5048301;28;20116;-68
2023/01/20 01:29:59;;;;;;;34.10;18.08;;;;;;;0.83;100.00;101041.88;5053495;28;20057;-68
2023/01/20 01:32:26;;;;;;;29.45;16.50;;;;;;;0.90;100.00;101058.72;5040187;28;20049;-68
2023/01/20 01:34:52;;;;;;;35.47;18.08;;;;;;;0.91;100.00;101057.81;5059418;28;20091;-68
2023/01/20 01:37:18;;;;;;;33.90;16.58;;;;;;;0.87;100.00;101058.91;5047609;28;20045;-68
2023/01/20 01:39:45;;;;;;;32.33;17.20;;;;;;;0.93;100.00;101064.56;5035099;28;20348;-67
2023/01/20 01:42:17;;;;;;;27.75;15.57;;;;;;;1.03;100.00;101066.69;5047235;28;20048;-67
2023/01/20 01:45:10;;;;;;;30.30;16.65;;;;;;;1.01;100.00;101071.09;5034597;28;20049;-67
2023/01/20 01:47:44;;;;;;;29.63;15.73;;;;;;;1.05;100.00;101075.19;5036047;28;20041;-67
2023/01/20 01:50:16;;;;;;;29.42;17.05;;;;;;;1.06;100.00;101080.28;5042113;28;20627;-67
2023/01/20 01:52:46;;;;;;;30.10;17.52;;;;;;;0.95;100.00;101080.00;5052988;28;20111;-68
2023/01/20 01:55:15;;;;;;;32.78;16.17;;;;;;;1.00;100.00;101075.44;5038970;28;20090;-67
2023/01/20 01:57:41;;;;;;;35.35;17.38;;;;;;;1.05;100.00;101077.78;5046621;28;20140;-67
2023/01/20 02:00:14;;;;;;;29.33;16.10;;;;;;;1.09;100.00;101079.28;5055936;28;20052;-67
2023/01/20 02:02:42;;;;;;;29.08;16.45;;;;;;;1.06;100.00;101089.78;5045893;28;20045;-67
2023/01/20 02:05:11;;;;;;;32.15;17.25;;;;;;;1.02;100.00;101089.13;5038704;28;20053;-67
2023/01/20 02:07:38;;;;;;;30.38;15.93;;;;;;;0.98;100.00;101088.44;5036628;28;20052;-67
2023/01/20 02:10:05;;;;;;;28.83;15.95;;;;;;;0.94;100.00;101092.09;5041879;28;20040;-68
2023/01/20 02:12:32;;;;;;;32.20;16.20;;;;;;;0.99;100.00;101090.09;5036459;28;20049;-67
2023/01/20 02:15:01;;;;;;;31.63;16.98;;;;;;;1.05;100.00;101090.69;5025071;28;20106;-67
2023/01/20 02:17:34;;;;;;;24.20;13.68;;;;;;;1.05;100.00;101085.53;5042773;28;20176;-67
2023/01/20 02:20:12;;;;;;;34.10;16.20;;;;;;;1.10;100.00;101096.47;5036891;28;20214;-68
2023/01/20 02:22:50;;;;;;;27.77;13.73;;;;;;;1.01;100.00;101091.78;5033517;28;20059;-68
2023/01/20 02:25:40;;;;;;;30.52;15.40;;;;;;;1.05;100.00;101088.13;5036105;28;20059;-67
2023/01/20 02:28:15;;;;;;;29.55;15.40;;;;;;;0.98;100.00;101092.75;5042911;28;20155;-67
2023/01/20 02:31:09;;;;;;;25.63;13.85;;;;;;;0.99;100.00;101091.84;5030043;28;20136;-67
2023/01/20 02:34:01;;;;;;;24.08;13.52;;;;;;;0.97;100.00;101096.25;5036214;28;20053;-67
2023/01/20 02:36:45;;;;;;;26.77;13.65;;;;;;;0.98;100.00;101106.50;5028354;28;20076;-68
2023/01/20 02:39:21;;;;;;;26.88;14.23;;;;;;;1.04;100.00;101100.22;5031643;28;20049;-67
2023/01/20 02:42:08;;;;;;;27.77;13.85;;;;;;;1.09;100.00;101105.94;5032933;28;20052;-67
2023/01/20 02:44:56;;;;;;;24.30;13.98;;;;;;;1.08;100.00;101103.44;5042483;28;20075;-67
2023/01/20 02:47:32;;;;;;;26.55;13.25;;;;;;;1.05;100.00;101108.78;5026262;28;20140;-67
2023/01/20 02:50:21;;;;;;;24.60;13.90;;;;;;;1.01;100.00;101099.53;5045679;28;20045;-67
2023/01/20 02:52:52;;;;;;;28.77;14.77;;;;;;;1.01;100.00;101105.50;5035980;28;20037;-67
2023/01/20 02:55:35;;;;;;;26.30;14.77;;;;;;;0.96;100.00;101112.66;5036802;28;20057;-67
2023/01/20 02:58:07;;;;;;;28.75;14.50;;;;;;;1.03;100.00;101115.78;5037399;28;20135;-67
2023/01/20 03:01:21;;;;;;;27.05;14.55;;;;;;;0.95;100.00;101114.41;5038509;28;20052;-67
2023/01/20 03:03:51;;;;;;;32.17;17.75;;;;;;;0.92;100.00;101114.56;5041444;28;20103;-68
2023/01/20 03:06:23;;;;;;;37.83;16.30;;;;;;;0.88;100.00;101117.38;5037219;28;20138;-67
2023/01/20 03:08:51;;;;;;;33.17;15.57;;;;;;;0.79;100.00;101124.66;5030347;28;20053;-67
2023/01/20 03:11:18;;;;;;;;;;;;;;;0.76;100.00;101126.56;5031260;28;20504;-67
2023/01/20 03:13:54;;;;;;;31.30;15.90;;;;;;;0.78;100.00;101117.84;5042416;28;20300;-67
2023/01/20 03:16:23;;;;;;;29.83;15.73;;;;;;;0.82;100.00;101118.50;5033730;28;20084;-68
2023/01/20 03:18:50;;;;;;;34.15;17.52;;;;;;;0.71;100.00;101119.06;5041380;28;20051;-67
2023/01/20 03:21:17;;;;;;;38.58;19.10;;;;;;;0.70;100.00;101114.78;5040742;28;20840;-66
2023/01/20 03:23:53;;;;;;;34.00;16.92;;;;;;;0.82;100.00;101122.84;5033977;28;20052;-69
2023/01/20 03:26:21;;;;;;;37.03;18.30;;;;;;;0.77;100.00;101123.09;5037051;28;20073;-67
2023/01/20 03:28:48;;;;;;;38.53;18.45;;;;;;;0.77;100.00;101115.34;5036364;28;20055;-68
2023/01/20 03:31:26;;;;;;;36.47;17.88;;;;;;;0.74;100.00;101111.13;5038088;28;20229;-67
2023/01/20 03:33:56;;;;;;;39.10;18.40;;;;;;;0.75;100.00;101112.00;5034140;28;20053;-66
2023/01/20 03:36:27;;;;;;;36.00;18.65;;;;;;;0.74;100.00;101121.47;5038343;28;20049;-66
2023/01/20 03:38:55;;;;;;;45.20;21.42;;;;;;;0.78;100.00;101114.41;5031381;28;20596;-66
2023/01/20 03:41:45;;;;;;;48.88;20.00;;;;;;;0.81;100.00;101122.03;5051381;28;20059;-68
2023/01/20 03:45:00;;;;;;;43.20;20.75;;;;;;;0.87;100.00;101129.47;5038008;28;20666;-68
2023/01/20 03:47:39;;;;;;;41.58;19.40;;;;;;;0.86;100.00;101126.94;4986131;28;20064;-69
2023/01/20 03:50:21;;;;;;;43.08;21.33;;;;;;;0.86;100.00;101129.53;5032271;28;20140;-69
2023/01/20 03:52:56;;;;;;;40.63;19.63;;;;;;;0.81;100.00;101132.34;5036996;28;20056;-69
2023/01/20 03:55:37;;;;;;;47.08;21.17;;;;;;;0.83;100.00;101135.69;5035602;28;20057;-69
2023/01/20 03:58:08;;;;;;;46.58;20.90;;;;;;;0.89;100.00;101134.56;5045804;28;20041;-68
2023/01/20 04:00:40;;;;;;;48.35;22.02;;;;;;;0.85;100.00;101131.28;5036476;28;20102;-68
2023/01/20 04:03:15;;;;;;;43.55;20.52;;;;;;;0.83;100.00;101127.13;5036604;28;20492;-68
2023/01/20 04:05:43;;;;;;;48.58;21.38;;;;;;;0.86;100.00;101126.94;5047022;28;20427;-69
2023/01/20 04:08:12;;;;;;;49.75;21.55;;;;;;;0.90;100.00;101121.56;5040642;28;20049;-69
2023/01/20 04:10:41;;;;;;;47.45;21.75;;;;;;;0.93;100.00;101142.06;5042609;28;20048;-68
2023/01/20 04:13:08;;;;;;;42.22;21.48;;;;;;;0.95;100.00;101137.66;5037229;28;20207;-69
2023/01/20 04:15:39;;;;;;;41.88;19.70;;;;;;;0.95;100.00;101145.41;5042755;28;20049;-69
2023/01/20 04:18:16;;;;;;;46.38;20.52;;;;;;;0.87;100.00;101151.88;5036964;28;20052;-68
2023/01/20 04:20:47;;;;;;;52.95;23.42;;;;;;;0.86;100.00;101151.00;5012281;28;20115;-68
2023/01/20 04:23:24;;;;;;;50.45;22.50;;;;;;;0.87;100.00;101154.47;5042062;28;20800;-68
2023/01/20 04:25:51;;;;;;;48.72;21.35;;;;;;;0.79;100.00;101150.50;5027975;28;20533;-69
2023/01/20 04:28:17;;;;;;;51.40;23.38;;;;;;;0.71;100.00;101151.78;5047104;28;20049;-68
2023/01/20 04:30:44;;;;;;;51.13;21.67;;;;;;;0.73;100.00;101155.97;5042750;28;20048;-68
2023/01/20 04:33:10;;;;;;;57.78;23.27;;;;;;;0.81;100.00;101162.50;5032416;28;20053;-68
2023/01/20 04:35:37;;;;;;;52.17;22.52;;;;;;;0.75;100.00;101159.31;5037584;28;21163;-68
2023/01/20 04:38:03;;;;;;;58.35;24.17;;;;;;;0.75;100.00;101154.16;5038457;28;20075;-68
2023/01/20 04:40:30;;;;;;;51.90;22.17;;;;;;;0.72;100.00;101154.28;5042120;28;20049;-68
2023/01/20 04:42:56;;;;;;;46.63;19.33;;;;;;;0.78;100.00;101153.16;5035354;28;20049;-68
2023/01/20 04:45:23;;;;;;;50.97;22.02;;;;;;;0.77;100.00;101156.66;5034147;28;20054;-68
2023/01/20 04:47:49;;;;;;;44.38;20.10;;;;;;;0.74;100.00;101170.53;5035498;28;20102;-68
2023/01/20 04:50:16;;;;;;;43.00;19.88;;;;;;;0.75;100.00;101161.06;5044645;28;20430;-70
2023/01/20 04:52:43;;;;;;;41.85;19.33;;;;;;;0.75;100.00;101155.91;5046479;28;20053;-68
2023/01/20 04:55:09;;;;;;;44.70;19.05;;;;;;;0.76;100.00;101157.56;5038222;28;20052;-68
2023/01/20 04:57:36;;;;;;;42.92;18.02;;;;;;;0.68;100.00;101149.34;5043796;28;20045;-69
2023/01/20 05:00:04;;;;;;;45.00;19.73;;;;;;;0.73;100.00;101158.53;5027715;28;20374;-68
2023/01/20 05:02:31;;;;;;;47.03;21.05;;;;;;;0.77;100.00;101156.66;5044452;28;20126;-68
2023/01/20 05:04:57;;;;;;;49.42;19.67;;;;;;;0.79;100.00;101158.25;5038278;28;20052;-68
2023/01/20 05:07:24;;;;;;;43.88;19.95;;;;;;;0.85;100.00;101157.09;5042568;28;20049;-68
2023/01/20 05:09:50;;;;;;;46.22;19.13;;;;;;;0.77;100.00;101162.66;5043715;28;20890;-67
2023/01/20 05:12:17;;;;;;;42.40;19.00;;;;;;;0.72;100.00;101159.44;5033224;28;20055;-67
2023/01/20 05:14:43;;;;;;;38.72;17.10;;;;;;;0.73;100.00;101163.72;5051701;28;20103;-68
2023/01/20 05:17:10;;;;;;;38.08;18.23;;;;;;;0.68;100.00;101167.41;5036855;28;20056;-68
2023/01/20 05:19:36;;;;;;;37.08;17.50;;;;;;;0.74;100.00;101170.53;5044549;28;20135;-68
2023/01/20 05:22:03;;;;;;;40.67;16.38;;;;;;;0.70;100.00;101169.00;5036852;28;20052;-69
2023/01/20 05:24:29;;;;;;;36.65;18.42;;;;;;;0.71;100.00;101165.53;5054209;28;20090;-68
2023/01/20 05:26:59;;;;;;;41.92;19.30;;;;;;;0.80;100.00;101174.56;5039133;28;20049;-68
2023/01/20 05:29:25;;;;;;;44.70;18.83;;;;;;;0.77;100.00;101180.72;5035927;28;20060;-68
2023/01/20 05:31:52;;;;;;;36.17;15.73;;;;;;;0.72;100.00;101171.53;5043906;28;20060;-69
2023/01/20 05:34:18;;;;;;;38.38;16.55;;;;;;;0.76;100.00;101170.47;5044542;28;20057;-67
2023/01/20 05:36:45;;;;;;;38.38;17.25;;;;;;;0.76;100.00;101175.63;5048044;28;20076;-68
2023/01/20 05:39:11;;;;;;;36.35;16.90;;;;;;;0.77;100.00;101172.97;5027502;28;20140;-68
2023/01/20 05:41:38;;;;;;;34.67;16.75;;;;;;;0.76;100.00;101175.63;5040356;28;20056;-67
2023/01/20 05:44:04;;;;;;;33.40;15.73;;;;;;;0.81;100.00;101185.75;5035589;28;20053;-68
2023/01/20 05:46:31;;;;;;;33.00;16.55;;;;;;;0.77;100.00;101183.31;5046153;28;20052;-67
2023/01/20 05:48:57;;;;;;;29.40;14.80;;;;;;;0.74;100.00;101178.28;5046742;28;20048;-68
2023/01/20 05:51:24;;;;;;;36.40;16.25;;;;;;;0.71;100.00;101175.84;5042703;28;20056;-68
2023/01/20 05:53:50;;;;;;;33.55;15.60;;;;;;;0.71;100.00;101186.19;5035677;28;20068;-67
2023/01/20 05:56:16;;;;;;;42.72;16.52;;;;;;;0.74;100.00;101178.28;5032247;28;20141;-67
2023/01/20 05:58:43;;;;;;;33.95;15.45;;;;;;;0.76;100.00;101173.88;5040086;28;20071;-67
2023/01/20 06:01:12;;;;;;;31.73;14.82;;;;;;;0.70;100.00;101175.94;5052645;28;20052;-67
2023/01/20 06:03:39;;;;;;;34.17;15.88;;;;;;;0.65;100.00;101186.50;5054962;28;20603;-68
2023/01/20 06:06:12;;;;;;;31.48;16.10;;;;;;;0.64;100.00;101181.38;5056131;28;20469;-67
2023/01/20 06:08:39;;;;;;;38.58;16.58;;;;;;;0.53;100.00;101187.91;5045633;28;20052;-67
2023/01/20 06:11:05;;;;;;;39.90;15.65;;;;;;;0.63;100.00;101179.72;5039017;28;20095;-68
2023/01/20 06:13:34;;;;;;;33.40;16.27;;;;;;;0.66;100.00;101185.56;5062641;28;20076;-67
2023/01/20 06:16:01;;;;;;;33.20;14.45;;;;;;;0.67;100.00;101192.41;5047803;28;20506;-67
2023/01/20 06:18:29;;;;;;;34.72;15.32;;;;;;;0.64;100.00;101189.13;5027964;28;20132;-68
2023/01/20 06:20:58;;;;;;;34.55;16.23;;;;;;;0.73;100.00;101189.53;5037385;28;20045;-68
2023/01/20 06:23:26;;;;;;;34.25;16.48;;;;;;;0.73;100.00;101188.72;5037637;28;20052;-68
2023/01/20 06:26:04;;;;;;;37.83;16.33;;;;;;;0.76;100.00;101183.38;5046863;28;20047;-67
2023/01/20 06:28:31;;;;;;;33.03;15.25;;;;;;;0.75;100.00;101181.72;5037983;28;20132;-68
2023/01/20 06:31:06;;;;;;;33.13;15.43;;;;;;;0.72;100.00;101179.28;5053647;28;20086;-67
2023/01/20 06:33:33;;;;;;;35.20;16.52;;;;;;;0.69;100.00;101176.84;5047259;28;20049;-67
2023/01/20 06:36:00;;;;;;;36.08;16.10;;;;;;;0.75;100.00;101192.88;5030384;28;20425;-67
2023/01/20 06:38:31;;;;;;;37.88;16.00;;;;;;;0.81;100.00;101196.91;5044741;28;20083;-68
2023/01/20 06:41:04;;;;;;;35.80;15.55;;;;;;;0.74;100.00;101209.25;5049107;28;20059;-68
2023/01/20 06:43:32;;;;;;;35.22;16.35;;;;;;;0.81;100.00;101215.00;5052981;28;20049;-68
2023/01/20 06:46:04;;;;;;;33.50;14.88;;;;;;;0.87;100.00;101212.09;5028260;28;20501;-68
2023/01/20 06:48:32;;;;;;;35.10;15.75;;;;;;;0.84;100.00;101224.31;5049691;28;20105;-68
2023/01/20 06:51:02;;;;;;;34.20;14.90;;;;;;;0.87;100.00;101221.59;5044341;28;20048;-68
2023/01/20 06:53:28;;;;;;;34.65;16.65;;;;;;;0.82;100.00;101219.22;5038653;28;20052;-68
2023/01/20 06:55:57;;;;;;;32.88;16.10;;;;;;;0.84;100.00;101227.75;5047085;28;20550;-68
2023/01/20 06:58:24;;;;;;;31.10;15.63;;;;;;;0.84;100.00;101229.50;5044297;28;20098;-68
2023/01/20 07:00:51;;;;;;;36.88;15.73;;;;;;;0.84;100.00;101234.66;5045323;28;20050;-68
2023/01/20 07:03:18;;;;;;;41.38;17.40;;;;;;;0.78;100.00;101238.38;5034595;28;20059;-68
2023/01/20 07:05:58;;;;;;;34.85;16.90;;;;;;;0.81;100.00;101230.50;5046033;28;20524;-67
2023/01/20 07:08:25;;;;;;;41.70;16.95;;;;;;;0.78;100.00;101236.66;5045478;28;20063;-68
2023/01/20 07:10:51;;;;;;;36.33;16.40;;;;;;;0.76;100.00;101233.28;5054681;28;20056;-68
2023/01/20 07:13:18;;;;;;;36.58;16.17;;;;;;;0.77;100.00;101242.69;5051971;28;20135;-68
2023/01/20 07:15:44;;;;;;;39.17;16.42;;;;;;;0.69;100.00;101237.06;5062462;28;20398;-68
2023/01/20 07:18:10;;;;;;;39.78;17.67;;;;;;;0.76;100.00;101240.19;5033242;28;20049;-68
2023/01/20 07:20:40;;;;;;;34.58;15.68;;;;;;;0.66;100.00;101250.13;5042335;28;20049;-68
2023/01/20 07:23:06;;;;;;;87.57;22.73;;;;;;;0.64;100.00;101253.69;5043388;28;20061;-68
2023/01/20 07:25:32;;;;;;;43.40;16.95;;;;;;;0.55;100.00;101242.88;5037077;28;20064;-68
2023/01/20 07:27:59;;;;;;;40.53;15.98;;;;;;;0.56;100.00;101252.28;5028010;28;20697;-68
2023/01/20 07:30:28;;;;;;;40.70;18.55;;;;;;;0.45;100.00;101243.38;5021061;28;20049;-68
2023/01/20 07:32:55;;;;;;;40.25;18.17;;;;;;;0.55;100.00;101255.78;5035137;28;20079;-68
2023/01/20 07:35:21;;;;;;;40.50;18.83;;;;;;;0.59;100.00;101252.16;5035685;28;20076;-68
2023/01/20 07:37:48;;;;;;;42.33;16.65;;;;;;;0.64;100.00;101259.69;5042675;28;20044;-68
2023/01/20 07:40:14;;;;;;;39.00;17.52;;;;;;;0.61;100.00;101259.84;5045206;28;20588;-67
2023/01/20 07:42:41;;;;;;;45.28;19.20;;;;;;;0.74;100.00;101255.75;5039300;28;20102;-68
2023/01/20 07:45:08;;;;;;;43.03;18.05;;;;;;;0.77;100.00;101267.69;5039315;28;20576;-68
2023/01/20 07:47:35;;;;;;;43.63;18.67;;;;;;;0.81;100.00;101266.66;5032756;28;20052;-67
2023/01/20 07:50:01;;;;;;;38.83;16.48;;;;;;;0.87;100.00;101266.34;5042731;28;20144;-69
2023/01/20 07:52:28;;;;;;;38.60;17.63;;;;;;;0.92;100.00;101264.41;5035989;28;20057;-68
2023/01/20 07:54:55;;;;;;;38.95;17.20;;;;;;;0.91;100.00;101269.63;5042588;28;20057;-68
2023/01/20 07:57:21;;;;;;;38.33;17.90;;;;;;;0.93;100.00;101265.22;5043388;28;20049;-69
2023/01/20 07:59:48;;;;;;;40.75;18.42;;;;;;;1.03;100.00;101265.63;5015643;28;20052;-67
2023/01/20 08:02:14;;;;;;;38.90;18.58;;;;;;;1.10;100.00;101267.00;5047444;28;20072;-68
2023/01/20 08:04:41;;;;;;;45.80;19.52;;;;;;;1.15;100.00;101270.19;5037192;28;20053;-68
2023/01/20 08:07:07;;;;;;;36.85;18.50;;;;;;;1.09;100.00;101276.47;5049529;28;20080;-68
2023/01/20 08:09:34;;;;;;;39.00;17.67;;;;;;;1.03;100.00;101268.19;5035990;28;20053;-68
2023/01/20 08:12:01;;;;;;;41.28;17.85;;;;;;;1.04;100.00;101262.97;5013685;28;20056;-68
2023/01/20 08:14:27;;;;;;;39.13;19.40;;;;;;;1.08;100.00;101274.81;5033904;28;20056;-68
2023/01/20 08:16:54;;;;;;;42.78;19.23;;;;;;;1.12;100.00;101273.75;5035240;28;20048;-68
2023/01/20 08:19:20;;;;;;;41.45;18.27;;;;;;;1.12;100.00;101278.94;5044709;28;20164;-67
2023/01/20 08:21:47;;;;;;;43.85;19.08;;;;;;;1.17;100.00;101283.88;5039660;28;20053;-68
2023/01/20 08:24:13;;;;;;;39.30;17.33;;;;;;;1.16;100.00;101287.38;5045902;28;20145;-68
2023/01/20 08:26:40;;;;;;;46.92;19.40;;;;;;;1.16;100.00;101292.53;5041533;28;20053;-68
2023/01/20 08:29:08;;;;;;;44.38;18.60;;;;;;;1.25;100.00;101286.91;5033755;28;20041;-69
2023/01/20 08:31:35;;;;;;;43.40;19.17;;;;;;;1.29;100.00;101292.75;5057343;28;20139;-69
2023/01/20 08:34:03;;;;;;;46.03;20.30;;;;;;;1.37;100.00;101288.91;5022834;28;20662;-69
2023/01/20 08:36:32;;;;;;;44.50;19.17;;;;;;;1.29;100.00;101290.19;5043010;28;20059;-69
2023/01/20 08:39:01;;;;;;;40.97;17.15;;;;;;;1.34;100.00;101294.22;5040371;28;20326;-68
2023/01/20 08:41:32;;;;;;;44.53;20.40;;;;;;;1.43;100.00;101295.53;5048827;28;20102;-68
2023/01/20 08:44:00;;;;;;;43.00;19.13;;;;;;;1.43;100.00;101294.66;5049620;28;20275;-69
2023/01/20 08:46:27;;;;;;;42.33;17.77;;;;;;;1.37;100.00;101290.63;5039618;28;20057;-67
2023/01/20 08:48:54;;;;;;;40.00;19.20;;;;;;;1.41;100.00;101291.31;5045851;28;20802;-68
2023/01/20 08:51:26;;;;;;;40.80;18.92;;;;;;;1.45;100.00;101303.19;5031312;28;20052;-68
2023/01/20 08:53:53;;;;;;;41.25;19.13;;;;;;;1.47;100.00;101296.19;5048072;28;20084;-68
2023/01/20 08:56:20;;;;;;;39.78;18.08;;;;;;;1.56;100.00;101299.16;5039715;28;20064;-68
2023/01/20 08:58:47;;;;;;;39.47;17.35;;;;;;;1.51;100.00;101303.75;5037601;28;20055;-68
2023/01/20 09:01:16;;;;;;;39.33;18.23;;;;;;;1.57;100.00;101303.44;5050095;28;20063;-67
2023/01/20 09:03:43;;;;;;;38.70;17.92;;;;;;;1.45;100.00;101296.28;5044248;28;20138;-68
2023/01/20 09:06:29;;;;;;;40.65;18.23;;;;;;;1.44;100.00;101293.78;5032279;28;20783;-69
2023/01/20 09:08:56;;;;;;;40.63;18.77;;;;;;;1.44;100.00;101304.13;5046094;28;20104;-68
2023/01/20 09:11:23;;;;;;;43.65;19.35;;;;;;;1.46;100.00;101312.63;5049109;28;20045;-66
2023/01/20 09:13:50;;;;;;;47.08;19.95;;;;;;;1.46;100.00;101315.22;5043694;28;20457;-68
2023/01/20 09:16:18;;;;;;;41.40;18.67;;;;;;;1.48;100.00;101321.97;5050546;28;20760;-68
2023/01/20 09:18:45;;;;;;;42.83;19.10;;;;;;;1.47;100.00;101319.47;5016387;28;20140;-68
2023/01/20 09:21:11;;;;;;;43.10;19.20;;;;;;;1.49;100.00;101320.22;5044952;28;20060;-66
2023/01/20 09:23:42;;;;;;;45.53;19.15;;;;;;;1.57;100.00;101321.53;5050700;28;20053;-69
2023/01/20 09:26:08;;;;;;;36.53;17.48;;;;;;;1.60;100.00;101327.47;5056482;28;20033;-67
2023/01/20 09:28:35;;;;;;;38.63;18.23;;;;;;;1.58;100.00;101333.53;5050254;28;20044;-67
2023/01/20 09:31:07;;;;;;;40.85;18.75;;;;;;;1.59;100.00;101324.03;5039127;28;20045;-67
2023/01/20 09:33:37;;;;;;;33.67;16.40;;;;;;;1.56;100.00;101329.34;5032479;28;20052;-67
2023/01/20 09:36:05;;;;;;;41.40;18.08;;;;;;;1.51;100.00;101339.94;5031603;28;20292;-68
2023/01/20 09:44:33;;;;;;;31.17;15.43;;;;;;;1.61;100.00;101350.66;5036168;28;20064;-68
2023/01/20 09:47:29;;;;;;;37.97;17.02;;;;;;;1.67;100.00;101347.78;5040201;28;20829;-68
2023/01/20 09:53:33;;;;;;;35.97;16.60;;;;;;;1.55;100.00;101351.81;5044165;28;20041;-68
2023/01/20 09:56:07;;;;;;;41.10;17.52;;;;;;;1.47;100.00;101347.91;5054416;28;20053;-70
2023/01/20 09:58:44;;;;;;;35.78;17.05;;;;;;;1.36;100.00;101353.59;5055913;28;20067;-68
2023/01/20 10:01:31;;;;;;;38.63;18.05;;;;;;;1.42;100.00;101357.66;5043629;28;20048;-68
2023/01/20 10:04:19;;;;;;;38.33;16.67;;;;;;;1.44;100.00;101366.16;5055627;28;20500;-69
2023/01/20 10:06:48;;;;;;;;;;;;;;;1.44;100.00;101356.66;5064953;28;20428;-68
2023/01/20 10:09:29;;;;;;;48.58;18.55;;;;;;;1.42;100.00;101363.66;5036850;28;19964;-69
2023/01/20 10:12:08;;;;;;;37.60;17.95;;;;;;;1.41;100.00;101371.47;5057054;28;20055;-68
2023/01/20 10:14:44;;;;;;;41.63;18.27;;;;;;;1.39;100.00;101366.38;5065531;28;20056;-69
2023/01/20 10:17:19;;;;;;;43.03;19.08;;;;;;;1.39;100.00;101368.94;5052380;28;20052;-68
2023/01/20 10:20:02;;;;;;;42.00;19.63;;;;;;;1.40;100.00;101368.06;5064506;28;20048;-67
2023/01/20 10:22:42;;;;;;;43.60;18.98;;;;;;;1.48;100.00;101376.28;5058166;28;20139;-67
2023/01/20 10:25:14;;;;;;;39.53;18.52;;;;;;;1.47;100.00;101377.19;5065955;28;20048;-68
2023/01/20 10:27:52;;;;;;;36.72;17.23;;;;;;;1.51;100.00;101383.88;5057675;28;21048;-67
2023/01/20 10:30:24;;;;;;;39.17;18.52;;;;;;;1.51;100.00;101375.28;5039270;28;20056;-69
2023/01/20 10:33:04;;;;;;;38.70;18.63;;;;;;;1.56;100.00;101370.72;5061889;28;20132;-68
2023/01/20 10:35:36;;;;;;;36.92;17.52;;;;;;;1.63;100.00;101368.66;5062293;28;20068;-68
2023/01/20 10:38:18;;;;;;;41.40;19.13;;;;;;;1.56;100.00;101362.97;5055814;28;20052;-67
2023/01/20 10:40:52;;;;;;;37.97;18.88;;;;;;;1.74;100.00;101363.81;5035108;28;20079;-68
2023/01/20 10:43:19;;;;;;;35.92;17.38;;;;;;;1.67;100.00;101371.06;5059906;28;20104;-68
2023/01/20 10:46:07;;;;;;;39.55;18.10;;;;;;;1.69;100.00;101376.97;5051898;28;20052;-66
2023/01/20 10:49:17;;;;;;;38.63;17.95;;;;;;;1.68;100.00;101379.63;5062733;28;20044;-69
2023/01/20 10:51:49;;;;;;;35.90;17.63;;;;;;;1.68;100.00;101377.06;5057980;28;20048;-66
2023/01/20 10:54:19;;;;;;;35.50;16.63;;;;;;;1.76;100.00;101374.91;5060893;28;20538;-66
2023/01/20 10:56:53;;;;;;;35.97;17.77;;;;;;;1.83;100.00;101368.53;5056695;28;20080;-68
2023/01/20 10:59:34;;;;;;;35.20;17.67;;;;;;;1.87;100.00;101362.28;5069595;28;20245;-68
2023/01/20 11:02:30;;;;;;;34.83;16.83;;;;;;;1.86;100.00;101370.97;5060095;28;20565;-68
2023/01/20 11:05:00;;;;;;;32.25;16.90;;;;;;;1.96;100.00;101371.31;5059642;28;20045;-70
2023/01/20 11:07:30;;;;;;;32.95;16.80;;;;;;;1.95;100.00;101364.50;5048373;28;20049;-67
2023/01/20 11:10:08;;;;;;;32.03;16.05;;;;;;;1.99;100.00;101373.78;5063355;28;20048;-66
2023/01/20 11:12:40;;;;;;;36.90;17.85;;;;;;;2.02;100.00;101370.19;5058842;28;20056;-68
2023/01/20 11:15:17;;;;;;;33.60;16.13;;;;;;;1.99;100.00;101373.78;5053988;28;20056;-68
2023/01/20 11:17:44;;;;;;;29.80;16.05;;;;;;;1.96;100.00;101374.78;5063954;28;20059;-67
2023/01/20 11:20:19;;;;;;;33.67;16.10;;;;;;;2.08;100.00;101369.88;5056928;28;20044;-69
2023/01/20 11:22:48;;;;;;;30.63;16.80;;;;;;;2.12;100.00;101382.59;5066450;28;20045;-68
2023/01/20 11:25:26;;;;;;;26.65;14.82;;;;;;;2.29;100.00;101378.28;5059032;28;20528;-68
2023/01/20 11:27:53;;;;;;;30.17;15.20;;;;;;;2.28;100.00;101380.06;5055777;28;20063;-68
2023/01/20 11:30:23;;;;;;;32.88;16.90;;;;;;;2.40;100.00;101388.13;5056261;28;20512;-68
2023/01/20 11:33:15;;;;;;;27.42;15.40;;;;;;;2.33;100.00;101388.44;5060026;28;20048;-68
2023/01/20 11:36:06;;;;;;;28.15;14.68;;;;;;;2.48;100.00;101385.97;5045373;28;20159;-68